Main page
METAR-TAF:

METAR-TAF

Airports :

Ghat Airport

Ghat, Libya

latitude: 25-08N, longitude: 010-09E, elevation: 699 m

METAR: missing

Time: 07:34 (05:34 UTC)

Forecast

The report was made 6 hours and 34 minutes ago, at 23:00 UTC
Forecast valid from 08 at 00 UTC to 08 at 24 UTC
Wind 2 kt from variable directions
Visibility 10 km or more
no clouds below 1500 m and no cumulonimbus

TAF: HLGT 072300Z 0800/0824 VRB02KT CAVOK

Weather observations and forecasts of more than 4000 airports (METAR and TAF reports).

The available stations are represented by yellow and red dots on the map.

Hover mouse over dot to see the name of the station.

Then click to see weather observations and forecasts.

To change the map : click on the green buttons with a black cross to zoom in, on the green button with a dash to zoom out, or on the green arrows for adjacent maps.


METAR-TAF: